Time;durP1;ratioP1;P1;durP2;ratioP2;P2;SDS_P1;SDS_P2;PMS_P1;PMS_P2;Temp;Humidity;BMP_temperature;BMP_pressure;BME280_temperature;BME280_humidity;BME280_pressure;Samples;Min_cycle;Max_cycle;Signal;HPM_P1;HPM_P2
2021/07/28 00:02:07;;;;;;;7.22;4.53;;;22.80;65.60;;;;;;5155291;27;27535;-58
2021/07/28 00:04:57;;;;;;;8.15;5.18;;;22.80;65.70;;;;;;5140408;27;27398;-46
2021/07/28 00:07:42;;;;;;;7.70;4.75;;;22.80;65.90;;;;;;5188886;27;27414;-57
2021/07/28 00:10:26;;;;;;;5.03;4.53;;;22.70;65.90;;;;;;5154813;27;27423;-58
2021/07/28 00:13:11;;;;;;;6.90;4.93;;;22.70;65.90;;;;;;5158450;27;27452;-57
2021/07/28 00:15:55;;;;;;;6.45;5.18;;;22.70;66.10;;;;;;5188856;27;27472;-47
2021/07/28 00:24:33;;;;;;;5.85;4.68;;;22.70;66.30;;;;;;5156828;27;27472;-57
2021/07/28 00:27:18;;;;;;;7.82;4.80;;;22.60;66.30;;;;;;5156291;27;27381;-54
2021/07/28 00:30:06;;;;;;;9.52;5.15;;;22.60;66.50;;;;;;5154273;27;27482;-57
2021/07/28 00:32:50;;;;;;;9.23;4.97;;;22.60;66.60;;;;;;5143659;27;27344;-55
2021/07/28 00:35:35;;;;;;;5.97;4.40;;;22.60;66.60;;;;;;5172564;27;27339;-57
2021/07/28 00:38:19;;;;;;;6.22;4.50;;;22.60;66.60;;;;;;5156589;27;27370;-57
2021/07/28 00:41:04;;;;;;;5.30;4.68;;;22.60;66.70;;;;;;5157617;27;27852;-58
2021/07/28 00:43:49;;;;;;;5.90;4.53;;;22.50;66.70;;;;;;5188150;27;27387;-57
2021/07/28 00:46:33;;;;;;;6.50;4.10;;;22.50;66.70;;;;;;5169177;27;27378;-58
2021/07/28 00:49:18;;;;;;;8.27;4.20;;;22.50;66.80;;;;;;5139448;27;27393;-57
2021/07/28 00:52:04;;;;;;;8.95;4.53;;;22.50;66.90;;;;;;5142887;27;27432;-56
2021/07/28 00:54:48;;;;;;;6.32;5.00;;;22.50;67.00;;;;;;5139740;27;27429;-56
2021/07/28 00:57:33;;;;;;;8.13;4.85;;;22.50;67.10;;;;;;5139448;27;27316;-57
2021/07/28 01:00:17;;;;;;;5.65;3.85;;;22.50;67.30;;;;;;5153839;27;27510;-58
2021/07/28 01:03:02;;;;;;;7.60;4.47;;;22.50;67.30;;;;;;5172280;27;27467;-58
2021/07/28 01:05:47;;;;;;;5.38;4.40;;;22.50;67.40;;;;;;5172171;27;27390;-58
2021/07/28 01:08:32;;;;;;;6.57;4.95;;;22.50;67.40;;;;;;5142957;27;27452;-58
2021/07/28 01:11:24;;;;;;;5.65;4.32;;;22.40;67.30;;;;;;5168764;27;27413;-57
2021/07/28 01:14:09;;;;;;;5.03;4.53;;;22.40;67.50;;;;;;5162676;27;27452;-57
2021/07/28 01:16:55;;;;;;;7.78;4.18;;;22.40;67.60;;;;;;5168360;27;27476;-58
2021/07/28 01:19:44;;;;;;;5.25;4.43;;;22.40;67.80;;;;;;5142722;27;27457;-57
2021/07/28 01:22:28;;;;;;;8.80;4.90;;;22.40;67.80;;;;;;5171922;27;27458;-57
2021/07/28 01:25:13;;;;;;;9.50;5.30;;;22.40;67.80;;;;;;5156783;27;28062;-57
2021/07/28 01:27:57;;;;;;;5.70;4.63;;;22.30;67.80;;;;;;5156206;27;27628;-58
2021/07/28 01:30:42;;;;;;;6.63;5.28;;;22.30;67.80;;;;;;5154186;27;27481;-58
2021/07/28 01:33:28;;;;;;;5.63;5.10;;;22.30;67.80;;;;;;5153352;27;27407;-56
2021/07/28 01:36:18;;;;;;;5.38;4.55;;;22.30;67.80;;;;;;5139046;27;27339;-58
2021/07/28 01:39:04;;;;;;;7.15;4.78;;;22.30;67.90;;;;;;5171491;27;27612;-58
2021/07/28 01:42:01;;;;;;;7.63;4.75;;;22.30;67.80;;;;;;5187337;27;27464;-57
2021/07/28 01:44:46;;;;;;;9.68;4.72;;;22.30;67.90;;;;;;5153097;27;27444;-57
2021/07/28 01:47:31;;;;;;;9.52;4.47;;;22.30;67.90;;;;;;5153522;27;27418;-58
2021/07/28 01:50:15;;;;;;;6.07;4.72;;;22.30;68.00;;;;;;5170368;27;27473;-57
2021/07/28 01:53:03;;;;;;;5.80;5.05;;;22.30;68.00;;;;;;5138694;27;27392;-58
2021/07/28 01:55:48;;;;;;;7.82;5.00;;;22.30;68.00;;;;;;5138751;27;27396;-58
2021/07/28 01:58:37;;;;;;;6.40;4.93;;;22.20;68.00;;;;;;5156775;27;27380;-57
2021/07/28 02:01:22;;;;;;;6.13;4.90;;;22.20;68.10;;;;;;5172036;27;27389;-55
2021/07/28 02:04:07;;;;;;;5.25;4.35;;;22.20;68.20;;;;;;5170910;27;27442;-58
2021/07/28 02:06:51;;;;;;;9.05;4.75;;;22.20;68.20;;;;;;5171145;27;27323;-57
2021/07/28 02:09:35;;;;;;;8.13;4.80;;;22.20;68.20;;;;;;5168117;27;27384;-58
2021/07/28 02:12:21;;;;;;;5.78;5.18;;;22.20;68.20;;;;;;5171271;27;27373;-57
2021/07/28 02:15:06;;;;;;;5.50;4.50;;;22.20;68.20;;;;;;5167672;27;27343;-58
2021/07/28 02:17:51;;;;;;;5.60;4.93;;;22.20;68.20;;;;;;5186173;27;27332;-57
2021/07/28 02:20:36;;;;;;;5.45;4.53;;;22.20;68.30;;;;;;5170718;27;27365;-57
2021/07/28 02:23:20;;;;;;;8.30;4.72;;;22.20;68.30;;;;;;5170982;27;27370;-57
2021/07/28 02:26:05;;;;;;;6.15;4.15;;;22.10;68.30;;;;;;5156005;27;27425;-58
2021/07/28 02:28:52;;;;;;;6.00;4.57;;;22.10;68.50;;;;;;5186672;27;27338;-58
2021/07/28 02:31:36;;;;;;;6.57;4.45;;;22.10;68.50;;;;;;5135765;27;27406;-58
2021/07/28 02:34:21;;;;;;;4.68;4.00;;;22.10;68.50;;;;;;5151570;27;27397;-58
2021/07/28 02:37:05;;;;;;;8.35;4.55;;;22.10;68.50;;;;;;5186259;27;27402;-57
2021/07/28 02:39:50;;;;;;;6.60;4.38;;;22.10;68.60;;;;;;5170699;27;27438;-58
2021/07/28 02:42:34;;;;;;;4.63;4.18;;;22.00;68.50;;;;;;5152405;27;27383;-58
2021/07/28 02:45:19;;;;;;;4.32;3.90;;;22.00;68.50;;;;;;5168479;27;27390;-58
2021/07/28 02:48:04;;;;;;;7.22;4.70;;;22.00;68.60;;;;;;5170996;27;27437;-58
2021/07/28 02:50:48;;;;;;;6.07;4.53;;;22.00;68.60;;;;;;5170547;27;27390;-56
2021/07/28 02:53:33;;;;;;;6.03;4.72;;;22.00;68.80;;;;;;5137698;27;27961;-56
2021/07/28 02:56:17;;;;;;;7.97;4.40;;;21.90;68.80;;;;;;5152413;27;27433;-58
2021/07/28 02:59:02;;;;;;;4.18;3.78;;;21.90;68.80;;;;;;5156097;27;27464;-58
2021/07/28 03:01:47;;;;;;;5.57;3.97;;;21.90;68.70;;;;;;5154416;27;27375;-57
2021/07/28 03:04:32;;;;;;;5.45;3.92;;;21.90;68.70;;;;;;5145090;27;27538;-58
2021/07/28 03:07:16;;;;;;;5.28;4.05;;;21.90;68.60;;;;;;5189605;27;27506;-58
2021/07/28 03:10:00;;;;;;;4.68;4.00;;;21.90;68.60;;;;;;5170629;27;27460;-56
2021/07/28 03:12:45;;;;;;;4.50;4.10;;;21.90;68.50;;;;;;5170440;27;27478;-48
2021/07/28 03:15:31;;;;;;;4.40;3.80;;;21.80;68.50;;;;;;5173371;27;27547;-57
2021/07/28 03:18:16;;;;;;;3.83;3.42;;;21.80;68.50;;;;;;5159516;27;27415;-45
2021/07/28 03:21:00;;;;;;;7.30;4.47;;;21.80;68.50;;;;;;5159059;27;27515;-57
2021/07/28 03:23:45;;;;;;;6.88;3.80;;;21.80;68.50;;;;;;5173268;27;27460;-56
2021/07/28 03:26:30;;;;;;;5.90;4.18;;;21.80;68.50;;;;;;5158405;27;27471;-57
2021/07/28 03:29:14;;;;;;;4.25;3.72;;;21.70;68.40;;;;;;5173704;27;27409;-58
2021/07/28 03:31:59;;;;;;;6.68;4.10;;;21.70;68.50;;;;;;5173463;27;27437;-59
2021/07/28 03:34:44;;;;;;;6.05;4.50;;;21.70;68.50;;;;;;5155566;27;27402;-58
2021/07/28 03:37:28;;;;;;;4.13;3.63;;;21.60;68.50;;;;;;5141060;27;27458;-59
2021/07/28 03:40:14;;;;;;;8.05;3.53;;;21.60;68.50;;;;;;5189095;27;27491;-57
2021/07/28 03:42:58;;;;;;;4.00;3.60;;;21.60;68.60;;;;;;5140577;27;27471;-50
2021/07/28 03:45:43;;;;;;;4.22;3.83;;;21.60;68.60;;;;;;5173298;27;27453;-56
2021/07/28 03:48:30;;;;;;;4.70;3.72;;;21.60;68.80;;;;;;5155214;27;27992;-57
2021/07/28 03:51:15;;;;;;;4.28;3.88;;;21.60;68.80;;;;;;5155449;27;27506;-58
2021/07/28 03:53:59;;;;;;;5.05;4.00;;;21.50;68.90;;;;;;5140441;27;27487;-55
2021/07/28 03:56:44;;;;;;;4.45;4.05;;;21.50;68.90;;;;;;5158878;27;27468;-58
2021/07/28 03:59:28;;;;;;;4.10;3.38;;;21.50;69.00;;;;;;5173628;27;27481;-57
2021/07/28 04:02:13;;;;;;;6.00;4.22;;;21.50;69.10;;;;;;5158590;27;27649;-46
2021/07/28 04:04:58;;;;;;;4.85;3.25;;;21.40;69.10;;;;;;5188516;27;27465;-58
2021/07/28 04:07:42;;;;;;;6.13;4.10;;;21.50;69.10;;;;;;5157808;27;27367;-58
2021/07/28 04:10:27;;;;;;;5.22;4.07;;;21.50;69.20;;;;;;5172768;27;27906;-58
2021/07/28 04:13:11;;;;;;;4.68;3.65;;;21.40;69.20;;;;;;5172747;27;27405;-56
2021/07/28 04:15:56;;;;;;;4.53;3.90;;;21.40;69.40;;;;;;5158768;27;27339;-58
2021/07/28 04:18:41;;;;;;;4.22;3.78;;;21.40;69.40;;;;;;5173171;27;27396;-56
2021/07/28 04:21:26;;;;;;;4.50;3.88;;;21.40;69.50;;;;;;5125315;27;27808;-58
2021/07/28 04:24:10;;;;;;;4.55;4.00;;;21.40;69.50;;;;;;5172454;27;27418;-58
2021/07/28 04:26:55;;;;;;;5.82;3.97;;;21.40;69.60;;;;;;5136627;27;27411;-58
2021/07/28 04:29:40;;;;;;;6.78;4.07;;;21.40;69.60;;;;;;5151608;27;27388;-58
2021/07/28 04:32:25;;;;;;;6.38;4.03;;;21.30;70.10;;;;;;5133913;27;27328;-59
2021/07/28 04:35:10;;;;;;;4.18;3.70;;;21.30;69.80;;;;;;5149501;27;27347;-46
2021/07/28 04:37:54;;;;;;;4.38;3.97;;;21.30;69.80;;;;;;5148239;27;27340;-58
2021/07/28 04:40:39;;;;;;;4.65;4.20;;;21.30;69.90;;;;;;5151539;27;27390;-59
2021/07/28 04:43:24;;;;;;;5.80;3.72;;;21.30;70.00;;;;;;5166360;27;28032;-54
2021/07/28 04:46:08;;;;;;;4.82;4.18;;;21.30;70.00;;;;;;5151349;27;27405;-58
2021/07/28 04:48:54;;;;;;;5.82;3.58;;;21.30;70.00;;;;;;5119168;27;27440;-58
2021/07/28 04:51:39;;;;;;;4.13;3.72;;;21.30;70.00;;;;;;5148189;27;27390;-59
2021/07/28 04:54:23;;;;;;;4.65;3.45;;;21.30;70.00;;;;;;5133529;27;27406;-58
2021/07/28 04:57:07;;;;;;;4.43;3.63;;;21.30;69.80;;;;;;5134283;27;27462;-57
2021/07/28 04:59:52;;;;;;;6.78;3.70;;;21.40;70.00;;;;;;5131996;27;27382;-58
2021/07/28 05:02:37;;;;;;;3.92;3.53;;;21.40;69.90;;;;;;5167492;27;27375;-57
2021/07/28 05:05:21;;;;;;;6.90;4.05;;;21.40;69.90;;;;;;5133710;27;27477;-57
2021/07/28 05:08:06;;;;;;;4.50;3.35;;;21.40;70.10;;;;;;5134436;27;27421;-56
2021/07/28 05:10:51;;;;;;;5.32;3.50;;;21.40;69.90;;;;;;5152151;27;26937;-57
2021/07/28 05:13:35;;;;;;;4.45;3.80;;;21.40;69.90;;;;;;5137669;27;27413;-50
2021/07/28 05:16:20;;;;;;;6.80;4.50;;;21.50;70.00;;;;;;5167278;27;27410;-57
2021/07/28 05:19:04;;;;;;;7.30;3.75;;;21.40;70.00;;;;;;5151674;27;27537;-58
2021/07/28 05:21:49;;;;;;;8.65;4.03;;;21.50;70.10;;;;;;5148359;27;27495;-57
2021/07/28 05:24:33;;;;;;;5.43;4.00;;;21.50;70.10;;;;;;5118284;27;27507;-58
2021/07/28 05:27:18;;;;;;;6.20;4.10;;;21.50;70.10;;;;;;5161465;27;27853;-57
2021/07/28 05:30:04;;;;;;;4.72;3.60;;;21.50;70.00;;;;;;5156507;27;27543;-57
2021/07/28 05:32:48;;;;;;;6.50;4.18;;;21.50;70.00;;;;;;5154371;27;27430;-58
2021/07/28 05:35:33;;;;;;;5.05;3.72;;;21.50;70.20;;;;;;5173547;27;27368;-58
2021/07/28 05:38:17;;;;;;;5.30;4.35;;;21.50;70.10;;;;;;5185141;27;27377;-48
2021/07/28 05:41:03;;;;;;;5.63;4.30;;;21.50;70.10;;;;;;5140444;27;27365;-48
2021/07/28 05:43:47;;;;;;;4.75;4.03;;;21.50;70.20;;;;;;5154914;27;27343;-57
2021/07/28 05:46:35;;;;;;;6.32;4.80;;;21.50;70.40;;;;;;5139713;27;27316;-57
2021/07/28 05:49:20;;;;;;;5.72;4.45;;;21.60;70.50;;;;;;5154154;27;27872;-57
2021/07/28 05:52:05;;;;;;;5.55;4.00;;;21.60;70.60;;;;;;5125253;27;27458;-57
2021/07/28 05:54:49;;;;;;;4.60;4.03;;;21.60;70.60;;;;;;5154449;27;27458;-57
2021/07/28 05:57:34;;;;;;;6.50;4.95;;;21.60;70.50;;;;;;5187515;27;27575;-57
2021/07/28 06:00:19;;;;;;;5.55;4.18;;;21.60;70.40;;;;;;5188048;27;27454;-56
2021/07/28 06:03:03;;;;;;;4.78;4.10;;;21.70;70.60;;;;;;5157721;27;27478;-57
2021/07/28 06:05:48;;;;;;;7.60;3.75;;;21.70;70.40;;;;;;5172955;27;27510;-57
2021/07/28 06:08:33;;;;;;;7.63;4.40;;;21.80;70.40;;;;;;5154483;27;27307;-56
2021/07/28 06:11:18;;;;;;;5.35;4.32;;;21.80;70.30;;;;;;5172222;27;27376;-57
2021/07/28 06:14:03;;;;;;;5.15;4.43;;;21.80;70.20;;;;;;5172326;27;27503;-57
2021/07/28 06:16:48;;;;;;;6.10;4.78;;;21.80;70.00;;;;;;5154179;27;27309;-57
2021/07/28 06:19:33;;;;;;;4.65;4.03;;;21.90;70.00;;;;;;5154377;27;27442;-57
2021/07/28 06:22:18;;;;;;;5.72;4.32;;;21.90;69.90;;;;;;5187931;27;27339;-57
2021/07/28 06:25:03;;;;;;;5.00;4.15;;;21.90;69.80;;;;;;5171635;27;27618;-56
2021/07/28 06:27:50;;;;;;;4.68;3.75;;;21.90;69.70;;;;;;5150819;27;27417;-57
2021/07/28 06:30:36;;;;;;;8.10;4.68;;;21.90;69.60;;;;;;5133237;27;27465;-57
2021/07/28 06:33:22;;;;;;;5.57;4.03;;;21.90;69.60;;;;;;5147358;27;28066;-56
2021/07/28 06:36:06;;;;;;;6.53;4.20;;;21.90;69.60;;;;;;5168655;27;27424;-57
2021/07/28 06:38:51;;;;;;;4.88;4.07;;;21.90;69.60;;;;;;5169353;27;27418;-56
2021/07/28 06:41:36;;;;;;;5.20;4.15;;;21.90;69.60;;;;;;5169394;27;27464;-54
2021/07/28 06:44:20;;;;;;;4.28;3.83;;;21.90;69.60;;;;;;5165511;27;27987;-56
2021/07/28 06:47:05;;;;;;;5.82;4.13;;;21.90;69.60;;;;;;5154524;27;27476;-57
2021/07/28 06:49:50;;;;;;;7.68;4.45;;;21.90;69.70;;;;;;5169769;27;27419;-57
2021/07/28 06:52:34;;;;;;;6.00;4.13;;;21.80;69.80;;;;;;5169343;27;27467;-57
2021/07/28 06:55:19;;;;;;;7.35;4.32;;;21.80;69.80;;;;;;5155317;27;27466;-47
2021/07/28 06:58:04;;;;;;;5.20;4.50;;;21.80;69.90;;;;;;5151160;27;27442;-57
2021/07/28 07:00:48;;;;;;;5.90;4.60;;;21.80;69.90;;;;;;5151375;27;27545;-57
2021/07/28 07:03:35;;;;;;;6.93;4.22;;;21.80;69.90;;;;;;5169162;27;27520;-57
2021/07/28 07:06:19;;;;;;;5.07;4.15;;;21.80;70.00;;;;;;5150977;27;27411;-48
2021/07/28 07:09:04;;;;;;;4.95;4.03;;;21.90;70.20;;;;;;5169733;27;27474;-58
2021/07/28 07:11:49;;;;;;;5.95;4.40;;;21.90;70.20;;;;;;5150479;27;27460;-57
2021/07/28 07:14:36;;;;;;;5.50;4.28;;;21.90;70.10;;;;;;5135901;27;27505;-57
2021/07/28 07:17:21;;;;;;;6.70;4.32;;;22.00;70.20;;;;;;5154498;27;27359;-56
2021/07/28 07:20:07;;;;;;;5.60;4.45;;;22.00;70.00;;;;;;5153195;27;27557;-58
2021/07/28 07:22:51;;;;;;;6.78;4.50;;;22.00;70.00;;;;;;5150689;27;26915;-55
2021/07/28 07:25:36;;;;;;;10.35;6.13;;;22.00;70.20;;;;;;5149877;27;27422;-58
2021/07/28 07:28:21;;;;;;;6.13;4.28;;;22.10;70.30;;;;;;5153070;27;27584;-57
2021/07/28 07:31:10;;;;;;;5.63;4.25;;;22.10;70.40;;;;;;5168445;27;27468;-57
2021/07/28 07:33:54;;;;;;;6.53;4.43;;;22.20;70.30;;;;;;5150539;27;27336;-56
2021/07/28 07:36:40;;;;;;;5.40;4.32;;;22.30;70.10;;;;;;5135823;27;27393;-57
2021/07/28 07:39:24;;;;;;;5.13;4.45;;;22.30;70.40;;;;;;5168181;27;27405;-55
2021/07/28 07:42:09;;;;;;;6.10;4.53;;;22.40;70.00;;;;;;5168740;27;27393;-57
2021/07/28 07:44:58;;;;;;;10.07;4.25;;;22.30;69.90;;;;;;5167907;27;27348;-58
2021/07/28 07:47:42;;;;;;;7.53;4.47;;;22.40;70.10;;;;;;5149691;27;27300;-58
2021/07/28 07:50:31;;;;;;;4.78;4.28;;;22.40;70.00;;;;;;5167965;27;27376;-57
2021/07/28 07:53:15;;;;;;;8.30;4.50;;;22.40;69.70;;;;;;5169202;27;27414;-58
2021/07/28 07:56:02;;;;;;;5.78;4.40;;;22.40;69.80;;;;;;5150398;27;26895;-56
2021/07/28 07:58:47;;;;;;;5.57;4.47;;;22.40;69.40;;;;;;5167843;27;27424;-57
2021/07/28 08:01:32;;;;;;;5.07;3.95;;;22.40;69.30;;;;;;5134979;27;27404;-57
2021/07/28 08:04:21;;;;;;;5.00;3.95;;;22.40;69.20;;;;;;5152892;27;27435;-57
2021/07/28 08:07:05;;;;;;;8.07;4.60;;;22.40;69.40;;;;;;5154481;27;27393;-50
2021/07/28 08:09:50;;;;;;;5.30;4.13;;;22.30;69.50;;;;;;5150136;27;27391;-49
2021/07/28 08:12:35;;;;;;;10.05;4.57;;;22.30;69.70;;;;;;5134956;27;27380;-57
2021/07/28 08:15:19;;;;;;;6.22;4.05;;;22.30;69.70;;;;;;5168620;27;27375;-57
2021/07/28 08:18:05;;;;;;;8.98;4.13;;;22.30;69.70;;;;;;5165004;27;27439;-57
2021/07/28 08:20:49;;;;;;;4.95;4.13;;;22.40;69.80;;;;;;5164117;27;27384;-58
2021/07/28 08:23:34;;;;;;;6.10;4.05;;;22.40;69.60;;;;;;5168210;27;27330;-57
2021/07/28 08:26:19;;;;;;;7.13;3.90;;;22.40;69.90;;;;;;5154250;27;27382;-53
2021/07/28 08:29:03;;;;;;;4.68;4.18;;;22.40;69.80;;;;;;5141413;27;27350;-50
2021/07/28 08:31:48;;;;;;;5.50;4.00;;;22.40;70.10;;;;;;5159228;27;27419;-57
2021/07/28 08:34:33;;;;;;;6.07;4.25;;;22.50;70.40;;;;;;5170040;27;27833;-57
2021/07/28 08:37:18;;;;;;;5.10;3.70;;;22.50;70.80;;;;;;5158799;27;27516;-56
2021/07/28 08:40:05;;;;;;;6.88;4.70;;;22.60;70.10;;;;;;5140576;27;27478;-58
2021/07/28 08:42:50;;;;;;;5.00;3.90;;;22.70;69.80;;;;;;5141678;27;27013;-58
2021/07/28 08:45:34;;;;;;;4.50;4.03;;;22.90;69.60;;;;;;5155450;27;27394;-57
2021/07/28 08:48:22;;;;;;;6.05;3.88;;;23.10;70.10;;;;;;5155830;27;27379;-59
2021/07/28 08:51:06;;;;;;;5.80;3.88;;;23.30;68.30;;;;;;5174222;27;27312;-59
2021/07/28 08:53:51;;;;;;;6.45;3.95;;;23.40;67.40;;;;;;5159639;27;27339;-57
2021/07/28 08:56:42;;;;;;;5.28;3.72;;;23.50;67.60;;;;;;5154858;27;27332;-58
2021/07/28 08:59:33;;;;;;;4.72;3.67;;;23.70;67.00;;;;;;5187857;27;27460;-56
2021/07/28 09:02:17;;;;;;;11.43;4.00;;;23.90;66.10;;;;;;5155130;27;27373;-58
2021/07/28 09:05:03;;;;;;;6.22;3.75;;;24.10;65.70;;;;;;5173034;27;27405;-57
2021/07/28 09:07:54;;;;;;;4.20;3.30;;;24.30;63.60;;;;;;5169725;27;27388;-58
2021/07/28 09:10:39;;;;;;;6.68;3.70;;;24.60;64.50;;;;;;5188265;27;27306;-58
2021/07/28 09:13:37;;;;;;;4.88;3.90;;;24.80;64.00;;;;;;5158340;27;27397;-57
2021/07/28 09:16:22;;;;;;;5.95;3.30;;;25.10;62.90;;;;;;5188958;27;27388;-58
2021/07/28 09:19:07;;;;;;;4.80;3.53;;;25.30;60.50;;;;;;5155556;27;27828;-58
2021/07/28 09:21:54;;;;;;;5.35;3.60;;;25.40;61.90;;;;;;5173072;27;27331;-58
2021/07/28 09:24:40;;;;;;;3.55;3.22;;;25.60;60.10;;;;;;5143875;27;27511;-59
2021/07/28 09:27:45;;;;;;;5.70;3.55;;;25.90;59.70;;;;;;5170681;27;27417;-58
2021/07/28 09:30:33;;;;;;;4.60;3.45;;;26.10;59.30;;;;;;5188139;27;27410;-57
2021/07/28 09:33:18;;;;;;;4.75;3.17;;;26.40;58.80;;;;;;5173396;27;27503;-58
2021/07/28 09:36:14;;;;;;;4.35;3.58;;;26.50;57.90;;;;;;5169395;27;27481;-58
2021/07/28 09:38:59;;;;;;;4.22;3.33;;;26.70;57.20;;;;;;5185035;27;27315;-58
2021/07/28 09:41:43;;;;;;;6.13;3.45;;;26.80;56.90;;;;;;5169083;27;27356;-58
2021/07/28 09:44:29;;;;;;;5.32;3.13;;;27.10;56.80;;;;;;5172745;27;27479;-58
2021/07/28 09:47:18;;;;;;;6.53;3.70;;;27.50;55.50;;;;;;5188215;27;27416;-49
2021/07/28 09:50:03;;;;;;;3.88;3.05;;;27.90;54.70;;;;;;5169265;27;27361;-58
2021/07/28 09:52:51;;;;;;;4.53;3.05;;;28.50;54.60;;;;;;5172603;27;27454;-59
2021/07/28 09:55:43;;;;;;;4.25;3.45;;;29.30;53.60;;;;;;5158982;27;27447;-59
2021/07/28 09:58:28;;;;;;;3.83;3.38;;;29.90;52.30;;;;;;5173059;27;27390;-56
2021/07/28 10:01:12;;;;;;;4.43;3.58;;;30.40;50.80;;;;;;5188073;27;27381;-56
2021/07/28 10:03:58;;;;;;;4.45;3.20;;;30.60;49.50;;;;;;5157545;27;27386;-55
2021/07/28 10:06:44;;;;;;;3.67;3.20;;;30.60;49.00;;;;;;5172056;27;27462;-57
2021/07/28 10:09:40;;;;;;;6.32;3.65;;;30.50;48.80;;;;;;5187914;27;27441;-56
2021/07/28 10:12:25;;;;;;;5.28;3.47;;;30.50;48.90;;;;;;5176469;27;27403;-56
2021/07/28 10:15:10;;;;;;;3.63;3.30;;;30.40;48.90;;;;;;5191759;27;27410;-56
2021/07/28 10:17:54;;;;;;;4.88;3.92;;;30.30;49.50;;;;;;5175957;27;27403;-56
2021/07/28 10:20:39;;;;;;;4.15;3.75;;;30.20;50.00;;;;;;5191810;27;27515;-56
2021/07/28 10:23:24;;;;;;;4.22;3.05;;;30.20;49.70;;;;;;5143190;27;27465;-56
2021/07/28 10:26:14;;;;;;;3.55;3.00;;;30.20;50.00;;;;;;5175790;27;28065;-48
2021/07/28 10:28:59;;;;;;;4.57;2.80;;;30.20;50.00;;;;;;5143541;27;27357;-56
2021/07/28 10:31:51;;;;;;;3.35;2.60;;;30.10;49.40;;;;;;5175623;27;27662;-55
2021/07/28 10:34:37;;;;;;;3.38;3.05;;;30.10;50.80;;;;;;5175899;27;27511;-56
2021/07/28 10:37:28;;;;;;;4.18;2.85;;;30.10;48.20;;;;;;5175644;27;27457;-55
2021/07/28 10:40:29;;;;;;;4.43;3.35;;;30.20;48.90;;;;;;5191503;27;27363;-56
2021/07/28 10:43:14;;;;;;;5.35;3.47;;;30.60;48.70;;;;;;5171991;27;27468;-56
2021/07/28 10:45:59;;;;;;;4.82;3.65;;;31.20;47.40;;;;;;5191167;27;27332;-55
2021/07/28 10:48:44;;;;;;;9.93;3.55;;;31.70;46.60;;;;;;5191338;27;27430;-49
2021/07/28 10:51:54;;;;;;;9.63;3.50;;;32.10;46.30;;;;;;5191026;27;27454;-55
2021/07/28 10:54:52;;;;;;;4.68;3.28;;;32.40;44.60;;;;;;5191204;27;27430;-56
2021/07/28 10:57:45;;;;;;;4.38;3.42;;;32.40;43.70;;;;;;5190082;27;27406;-56
2021/07/28 11:00:38;;;;;;;6.22;3.38;;;32.30;43.80;;;;;;5190462;27;27897;-59
2021/07/28 11:03:28;;;;;;;8.63;2.97;;;32.20;43.00;;;;;;5190904;27;27404;-57
2021/07/28 11:06:17;;;;;;;3.85;3.22;;;32.30;43.40;;;;;;5157326;27;27436;-50
2021/07/28 11:09:15;;;;;;;5.43;3.33;;;32.60;43.90;;;;;;5160200;27;27370;-56
2021/07/28 11:11:59;;;;;;;4.38;2.60;;;33.30;42.60;;;;;;5190472;27;27414;-56
2021/07/28 11:14:43;;;;;;;4.90;2.63;;;34.20;41.70;;;;;;5175462;27;27670;-57
2021/07/28 11:17:28;;;;;;;4.90;3.00;;;34.90;40.30;;;;;;5160329;27;27414;-57
2021/07/28 11:20:32;;;;;;;4.00;2.90;;;35.60;39.20;;;;;;5174899;27;27398;-57
2021/07/28 11:23:37;;;;;;;4.40;3.13;;;36.40;39.40;;;;;;5189604;27;27918;-55
2021/07/28 11:26:36;;;;;;;3.97;2.83;;;37.50;37.90;;;;;;5170836;27;27369;-54
2021/07/28 11:29:21;;;;;;;3.38;3.08;;;38.40;37.10;;;;;;5190503;27;27460;-56
2021/07/28 11:32:07;;;;;;;7.55;2.80;;;38.90;35.20;;;;;;5141662;27;27441;-53
2021/07/28 11:34:58;;;;;;;4.45;3.53;;;39.20;34.50;;;;;;5190239;27;27394;-44
2021/07/28 11:37:42;;;;;;;3.42;2.95;;;39.60;34.10;;;;;;5190547;27;27335;-55
2021/07/28 11:40:49;;;;;;;5.07;3.00;;;39.60;33.70;;;;;;5174619;27;27323;-53
2021/07/28 11:43:38;;;;;;;4.30;3.22;;;39.60;33.20;;;;;;5156802;27;27407;-54
2021/07/28 11:46:23;;;;;;;3.08;2.78;;;39.80;34.10;;;;;;5174407;27;27467;-53
2021/07/28 11:49:08;;;;;;;3.20;2.90;;;40.40;33.80;;;;;;5174528;27;27493;-56
2021/07/28 11:51:58;;;;;;;4.93;3.05;;;40.90;32.10;;;;;;5156050;27;27473;-57
2021/07/28 11:54:43;;;;;;;5.38;3.15;;;41.40;31.10;;;;;;5174300;27;27335;-56
2021/07/28 11:57:27;;;;;;;5.28;3.80;;;41.70;29.40;;;;;;5170589;27;27372;-57
2021/07/28 12:00:32;;;;;;;2.85;2.60;;;42.10;29.70;;;;;;5174139;27;27339;-56
2021/07/28 12:03:25;;;;;;;2.83;2.63;;;42.60;29.40;;;;;;5190062;27;27373;-56
2021/07/28 12:06:09;;;;;;;3.03;2.83;;;43.10;28.60;;;;;;5189985;27;27352;-57
2021/07/28 12:09:08;;;;;;;5.63;3.53;;;43.40;27.90;;;;;;5189753;27;27435;-57
2021/07/28 12:11:55;;;;;;;4.25;3.00;;;43.60;27.60;;;;;;5139203;27;27399;-57
2021/07/28 12:14:42;;;;;;;3.95;2.80;;;44.10;28.20;;;;;;5190024;27;27471;-57
2021/07/28 12:17:27;;;;;;;4.28;2.70;;;44.60;27.90;;;;;;5156229;27;27501;-55
2021/07/28 12:20:14;;;;;;;4.50;2.55;;;45.00;27.20;;;;;;5189824;27;27410;-57
2021/07/28 12:22:59;;;;;;;3.25;2.95;;;45.00;26.50;;;;;;5157363;27;27642;-56
2021/07/28 12:25:47;;;;;;;3.03;2.72;;;44.90;26.30;;;;;;5189420;27;27412;-56
2021/07/28 12:28:50;;;;;;;3.05;2.75;;;44.40;25.80;;;;;;5188775;27;27602;-57
2021/07/28 12:31:35;;;;;;;5.50;2.83;;;43.60;26.70;;;;;;5189572;27;27836;-56
2021/07/28 12:34:20;;;;;;;6.18;3.00;;;42.90;27.20;;;;;;5173924;27;27327;-56
2021/07/28 12:37:21;;;;;;;3.42;3.13;;;42.10;26.90;;;;;;5173593;27;27336;-56
2021/07/28 12:40:06;;;;;;;4.40;3.17;;;41.40;27.60;;;;;;5155734;27;27422;-56
2021/07/28 12:42:51;;;;;;;5.03;2.90;;;40.80;28.90;;;;;;5189188;27;27459;-56
2021/07/28 12:45:36;;;;;;;4.43;3.17;;;40.30;29.90;;;;;;5155010;27;27427;-56
2021/07/28 12:48:21;;;;;;;3.65;3.20;;;39.80;30.10;;;;;;5173423;27;27464;-56
2021/07/28 12:51:08;;;;;;;6.03;2.95;;;39.50;30.20;;;;;;5140874;27;27459;-57
2021/07/28 12:53:53;;;;;;;6.05;3.50;;;39.70;31.00;;;;;;5189042;27;27482;-53
2021/07/28 12:56:37;;;;;;;4.53;2.97;;;39.80;29.60;;;;;;5169606;27;27468;-56
2021/07/28 12:59:22;;;;;;;5.47;3.58;;;39.80;29.50;;;;;;5170055;27;27445;-57
2021/07/28 13:02:07;;;;;;;4.07;3.30;;;40.20;29.40;;;;;;5173222;27;27450;-47
2021/07/28 13:04:53;;;;;;;3.40;3.10;;;40.50;29.00;;;;;;5188482;27;27417;-56
2021/07/28 13:07:44;;;;;;;3.95;3.15;;;40.90;28.80;;;;;;5188923;27;27492;-56
2021/07/28 13:10:28;;;;;;;3.78;3.38;;;40.80;28.10;;;;;;5174279;27;27378;-57
2021/07/28 13:13:14;;;;;;;3.28;2.78;;;40.70;28.50;;;;;;5188765;27;27311;-56
2021/07/28 13:15:59;;;;;;;4.22;2.97;;;41.20;29.40;;;;;;5157933;27;27943;-54
2021/07/28 13:18:44;;;;;;;2.83;2.63;;;41.70;29.90;;;;;;5155020;27;27468;-57
2021/07/28 13:21:29;;;;;;;3.20;2.83;;;42.10;28.50;;;;;;5158191;27;27519;-56
2021/07/28 13:24:14;;;;;;;4.78;2.70;;;42.30;27.60;;;;;;5158391;27;27378;-57
2021/07/28 13:26:59;;;;;;;3.95;3.00;;;42.30;27.40;;;;;;5172291;27;27331;-56
2021/07/28 13:29:43;;;;;;;3.70;3.20;;;42.20;27.30;;;;;;5188830;27;27477;-55
2021/07/28 13:32:28;;;;;;;3.03;2.65;;;41.80;27.50;;;;;;5188858;27;27409;-57
2021/07/28 13:35:14;;;;;;;4.55;3.40;;;41.30;27.80;;;;;;5173418;27;27369;-54
2021/07/28 13:37:58;;;;;;;3.40;2.97;;;40.80;28.60;;;;;;5154844;27;27308;-57
2021/07/28 13:40:44;;;;;;;6.00;2.92;;;40.20;29.50;;;;;;5158459;27;27383;-56
2021/07/28 13:43:28;;;;;;;10.02;3.30;;;39.70;30.20;;;;;;5188679;27;27458;-56
2021/07/28 13:46:13;;;;;;;4.45;3.30;;;39.10;31.00;;;;;;5157348;27;27390;-56
2021/07/28 13:48:58;;;;;;;6.95;3.30;;;38.60;31.60;;;;;;5169229;27;27478;-56
2021/07/28 13:51:43;;;;;;;5.82;3.03;;;38.20;32.30;;;;;;5188148;27;27392;-56
2021/07/28 13:54:27;;;;;;;6.22;3.67;;;37.80;32.90;;;;;;5157817;27;27387;-55
2021/07/28 13:57:16;;;;;;;9.02;3.50;;;37.60;34.20;;;;;;5140741;27;27308;-55
2021/07/28 14:00:01;;;;;;;4.63;3.38;;;37.60;33.90;;;;;;5187931;27;27414;-49
2021/07/28 14:02:46;;;;;;;7.80;3.60;;;37.70;34.60;;;;;;5172165;27;27450;-56
2021/07/28 14:05:31;;;;;;;3.70;3.20;;;38.00;34.50;;;;;;5171825;27;27500;-56
2021/07/28 14:08:15;;;;;;;5.85;3.20;;;38.30;33.90;;;;;;5172593;27;27394;-56
2021/07/28 14:11:01;;;;;;;3.60;3.22;;;38.60;32.70;;;;;;5157801;27;27856;-56
2021/07/28 14:13:45;;;;;;;6.82;3.75;;;38.50;31.00;;;;;;5171450;27;27491;-55
2021/07/28 14:16:30;;;;;;;3.67;3.25;;;38.40;31.60;;;;;;5154237;27;27407;-56
2021/07/28 14:19:17;;;;;;;6.00;3.42;;;38.40;32.30;;;;;;5171806;27;27528;-56
2021/07/28 14:22:03;;;;;;;7.07;3.47;;;38.60;31.80;;;;;;5187421;27;27455;-56
2021/07/28 14:24:48;;;;;;;3.45;3.15;;;38.70;32.30;;;;;;5168314;27;27547;-56
2021/07/28 14:27:33;;;;;;;4.60;3.40;;;38.90;31.50;;;;;;5155284;27;27647;-56
2021/07/28 14:30:17;;;;;;;3.25;2.95;;;39.00;30.80;;;;;;5187740;27;27442;-56